sensor_id;sensor_type;location;lat;lon;timestamp;temperature;humidity
24682;DHT22;12802;53.390;-2.328;2023-06-22T00:01:59;17.20;99.90
24682;DHT22;12802;53.390;-2.328;2023-06-22T00:04:25;17.10;99.90
24682;DHT22;12802;53.390;-2.328;2023-06-22T00:06:51;17.10;99.90
24682;DHT22;12802;53.390;-2.328;2023-06-22T00:09:17;17.10;99.90
24682;DHT22;12802;53.390;-2.328;2023-06-22T00:11:42;17.10;99.90
24682;DHT22;12802;53.390;-2.328;2023-06-22T00:14:08;17.10;99.90
24682;DHT22;12802;53.390;-2.328;2023-06-22T00:16:34;17.10;99.90
24682;DHT22;12802;53.390;-2.328;2023-06-22T00:19:00;17.10;99.90
24682;DHT22;12802;53.390;-2.328;2023-06-22T00:21:27;17.00;99.90
24682;DHT22;12802;53.390;-2.328;2023-06-22T00:23:53;16.90;99.90
24682;DHT22;12802;53.390;-2.328;2023-06-22T00:26:19;16.90;99.90
24682;DHT22;12802;53.390;-2.328;2023-06-22T00:28:48;16.90;99.90
24682;DHT22;12802;53.390;-2.328;2023-06-22T00:31:14;16.80;99.90
24682;DHT22;12802;53.390;-2.328;2023-06-22T00:33:40;16.80;99.90
24682;DHT22;12802;53.390;-2.328;2023-06-22T00:36:06;16.70;99.90
24682;DHT22;12802;53.390;-2.328;2023-06-22T00:38:34;16.70;99.90
24682;DHT22;12802;53.390;-2.328;2023-06-22T00:41:00;16.70;99.90
24682;DHT22;12802;53.390;-2.328;2023-06-22T00:43:26;16.70;99.90
24682;DHT22;12802;53.390;-2.328;2023-06-22T00:45:52;16.70;99.90
24682;DHT22;12802;53.390;-2.328;2023-06-22T00:48:18;16.60;99.90
24682;DHT22;12802;53.390;-2.328;2023-06-22T00:50:47;16.60;99.90
24682;DHT22;12802;53.390;-2.328;2023-06-22T00:55:44;16.60;99.90
24682;DHT22;12802;53.390;-2.328;2023-06-22T00:58:12;16.60;99.90
24682;DHT22;12802;53.390;-2.328;2023-06-22T01:00:41;16.40;99.90
24682;DHT22;12802;53.390;-2.328;2023-06-22T01:03:07;16.40;99.90
24682;DHT22;12802;53.390;-2.328;2023-06-22T01:05:37;16.30;99.90
24682;DHT22;12802;53.390;-2.328;2023-06-22T01:08:15;16.30;99.90
24682;DHT22;12802;53.390;-2.328;2023-06-22T01:10:53;16.30;99.90
24682;DHT22;12802;53.390;-2.328;2023-06-22T01:15:55;16.30;99.90
24682;DHT22;12802;53.390;-2.328;2023-06-22T01:18:22;16.30;99.90
24682;DHT22;12802;53.390;-2.328;2023-06-22T01:20:53;16.30;99.90
24682;DHT22;12802;53.390;-2.328;2023-06-22T01:28:49;16.20;99.90
24682;DHT22;12802;53.390;-2.328;2023-06-22T01:31:22;16.20;99.90
24682;DHT22;12802;53.390;-2.328;2023-06-22T01:33:53;16.20;99.90
24682;DHT22;12802;53.390;-2.328;2023-06-22T01:36:22;16.20;99.90
24682;DHT22;12802;53.390;-2.328;2023-06-22T01:38:49;16.20;99.90
24682;DHT22;12802;53.390;-2.328;2023-06-22T01:41:17;16.20;99.90
24682;DHT22;12802;53.390;-2.328;2023-06-22T01:43:47;16.10;99.90
24682;DHT22;12802;53.390;-2.328;2023-06-22T01:46:14;16.10;99.90
24682;DHT22;12802;53.390;-2.328;2023-06-22T01:48:40;16.10;99.90
24682;DHT22;12802;53.390;-2.328;2023-06-22T01:51:06;16.00;99.90
24682;DHT22;12802;53.390;-2.328;2023-06-22T01:53:32;16.00;99.90
24682;DHT22;12802;53.390;-2.328;2023-06-22T01:55:58;16.00;99.90
24682;DHT22;12802;53.390;-2.328;2023-06-22T01:58:29;16.00;99.90
24682;DHT22;12802;53.390;-2.328;2023-06-22T02:01:16;15.90;99.90
24682;DHT22;12802;53.390;-2.328;2023-06-22T02:03:50;15.90;99.90
24682;DHT22;12802;53.390;-2.328;2023-06-22T02:06:25;15.70;99.90
24682;DHT22;12802;53.390;-2.328;2023-06-22T02:08:59;15.50;99.90
24682;DHT22;12802;53.390;-2.328;2023-06-22T02:11:28;15.60;99.90
24682;DHT22;12802;53.390;-2.328;2023-06-22T02:13:55;15.60;99.90
24682;DHT22;12802;53.390;-2.328;2023-06-22T02:16:23;15.70;99.90
24682;DHT22;12802;53.390;-2.328;2023-06-22T02:18:50;15.80;99.90
24682;DHT22;12802;53.390;-2.328;2023-06-22T02:21:20;15.80;99.90
24682;DHT22;12802;53.390;-2.328;2023-06-22T02:23:46;15.70;99.90
24682;DHT22;12802;53.390;-2.328;2023-06-22T02:26:12;15.70;99.90
24682;DHT22;12802;53.390;-2.328;2023-06-22T02:28:38;15.70;99.90
24682;DHT22;12802;53.390;-2.328;2023-06-22T02:31:04;15.70;99.90
24682;DHT22;12802;53.390;-2.328;2023-06-22T02:33:30;15.70;99.90
24682;DHT22;12802;53.390;-2.328;2023-06-22T02:35:56;15.70;99.90
24682;DHT22;12802;53.390;-2.328;2023-06-22T02:43:17;15.60;99.90
24682;DHT22;12802;53.390;-2.328;2023-06-22T02:45:43;15.60;99.90
24682;DHT22;12802;53.390;-2.328;2023-06-22T02:48:10;15.60;99.90
24682;DHT22;12802;53.390;-2.328;2023-06-22T03:00:31;15.30;99.90
24682;DHT22;12802;53.390;-2.328;2023-06-22T03:02:57;15.40;99.90
24682;DHT22;12802;53.390;-2.328;2023-06-22T03:05:23;15.30;99.90
24682;DHT22;12802;53.390;-2.328;2023-06-22T03:07:49;15.30;99.90
24682;DHT22;12802;53.390;-2.328;2023-06-22T03:10:16;15.30;99.90
24682;DHT22;12802;53.390;-2.328;2023-06-22T03:12:42;15.30;99.90
24682;DHT22;12802;53.390;-2.328;2023-06-22T03:15:10;15.20;99.90
24682;DHT22;12802;53.390;-2.328;2023-06-22T03:17:38;15.00;99.90
24682;DHT22;12802;53.390;-2.328;2023-06-22T03:20:05;15.00;99.90
24682;DHT22;12802;53.390;-2.328;2023-06-22T03:22:36;15.00;99.90
24682;DHT22;12802;53.390;-2.328;2023-06-22T03:25:03;15.00;99.90
24682;DHT22;12802;53.390;-2.328;2023-06-22T03:27:29;14.90;99.90
24682;DHT22;12802;53.390;-2.328;2023-06-22T03:29:57;14.80;99.90
24682;DHT22;12802;53.390;-2.328;2023-06-22T03:32:23;14.70;99.90
24682;DHT22;12802;53.390;-2.328;2023-06-22T03:34:48;14.70;99.90
24682;DHT22;12802;53.390;-2.328;2023-06-22T03:37:16;14.80;99.90
24682;DHT22;12802;53.390;-2.328;2023-06-22T03:39:42;14.80;99.90
24682;DHT22;12802;53.390;-2.328;2023-06-22T03:42:08;14.80;99.90
24682;DHT22;12802;53.390;-2.328;2023-06-22T03:44:35;14.80;99.90
24682;DHT22;12802;53.390;-2.328;2023-06-22T03:47:03;14.90;99.90
24682;DHT22;12802;53.390;-2.328;2023-06-22T03:49:29;14.90;99.90
24682;DHT22;12802;53.390;-2.328;2023-06-22T03:51:55;14.90;99.90
24682;DHT22;12802;53.390;-2.328;2023-06-22T03:54:20;14.90;99.90
24682;DHT22;12802;53.390;-2.328;2023-06-22T03:56:46;15.00;99.90
24682;DHT22;12802;53.390;-2.328;2023-06-22T03:59:12;15.00;99.90
24682;DHT22;12802;53.390;-2.328;2023-06-22T04:01:38;15.00;99.90
24682;DHT22;12802;53.390;-2.328;2023-06-22T04:04:03;15.00;99.90
24682;DHT22;12802;53.390;-2.328;2023-06-22T04:06:29;15.00;99.90
24682;DHT22;12802;53.390;-2.328;2023-06-22T04:08:55;15.00;99.90
24682;DHT22;12802;53.390;-2.328;2023-06-22T04:11:20;15.00;99.90
24682;DHT22;12802;53.390;-2.328;2023-06-22T04:13:46;14.90;99.90
24682;DHT22;12802;53.390;-2.328;2023-06-22T04:16:14;14.90;99.90
24682;DHT22;12802;53.390;-2.328;2023-06-22T04:18:39;14.80;99.90
24682;DHT22;12802;53.390;-2.328;2023-06-22T04:21:05;14.60;99.90
24682;DHT22;12802;53.390;-2.328;2023-06-22T04:25:57;14.70;99.90
24682;DHT22;12802;53.390;-2.328;2023-06-22T04:28:24;14.60;99.90
24682;DHT22;12802;53.390;-2.328;2023-06-22T04:30:50;14.70;99.90
24682;DHT22;12802;53.390;-2.328;2023-06-22T04:33:16;14.60;99.90
24682;DHT22;12802;53.390;-2.328;2023-06-22T04:40:39;14.40;99.90
24682;DHT22;12802;53.390;-2.328;2023-06-22T04:50:24;14.60;99.90
24682;DHT22;12802;53.390;-2.328;2023-06-22T04:52:50;14.60;99.90
24682;DHT22;12802;53.390;-2.328;2023-06-22T04:55:17;14.50;99.90
24682;DHT22;12802;53.390;-2.328;2023-06-22T04:57:47;14.60;99.90
24682;DHT22;12802;53.390;-2.328;2023-06-22T05:00:23;14.60;99.90
24682;DHT22;12802;53.390;-2.328;2023-06-22T05:02:49;14.70;99.90
24682;DHT22;12802;53.390;-2.328;2023-06-22T05:05:15;14.80;99.90
24682;DHT22;12802;53.390;-2.328;2023-06-22T05:07:43;14.70;99.90
24682;DHT22;12802;53.390;-2.328;2023-06-22T05:10:10;14.70;99.90
24682;DHT22;12802;53.390;-2.328;2023-06-22T05:12:37;14.80;99.90
24682;DHT22;12802;53.390;-2.328;2023-06-22T05:15:03;14.80;99.90
24682;DHT22;12802;53.390;-2.328;2023-06-22T05:17:29;14.90;99.90
24682;DHT22;12802;53.390;-2.328;2023-06-22T05:19:55;14.90;99.90
24682;DHT22;12802;53.390;-2.328;2023-06-22T05:22:21;15.00;99.90
24682;DHT22;12802;53.390;-2.328;2023-06-22T05:24:47;15.10;99.90
24682;DHT22;12802;53.390;-2.328;2023-06-22T05:27:14;15.10;99.90
24682;DHT22;12802;53.390;-2.328;2023-06-22T05:29:40;15.20;99.90
24682;DHT22;12802;53.390;-2.328;2023-06-22T05:32:06;15.20;99.90
24682;DHT22;12802;53.390;-2.328;2023-06-22T05:34:32;15.30;99.90
24682;DHT22;12802;53.390;-2.328;2023-06-22T05:36:58;15.40;99.90
24682;DHT22;12802;53.390;-2.328;2023-06-22T05:39:26;15.50;99.90
24682;DHT22;12802;53.390;-2.328;2023-06-22T05:41:52;15.50;99.90
24682;DHT22;12802;53.390;-2.328;2023-06-22T05:44:18;15.60;99.90
24682;DHT22;12802;53.390;-2.328;2023-06-22T05:46:44;15.70;99.90
24682;DHT22;12802;53.390;-2.328;2023-06-22T05:49:12;15.80;99.90
24682;DHT22;12802;53.390;-2.328;2023-06-22T05:51:39;16.00;99.90
24682;DHT22;12802;53.390;-2.328;2023-06-22T05:54:05;16.10;99.90
24682;DHT22;12802;53.390;-2.328;2023-06-22T05:56:30;16.20;99.90
24682;DHT22;12802;53.390;-2.328;2023-06-22T05:58:56;16.30;99.90
24682;DHT22;12802;53.390;-2.328;2023-06-22T06:01:22;16.40;99.90
24682;DHT22;12802;53.390;-2.328;2023-06-22T06:03:48;16.50;99.90
24682;DHT22;12802;53.390;-2.328;2023-06-22T06:06:15;16.60;99.90
24682;DHT22;12802;53.390;-2.328;2023-06-22T06:11:07;16.70;99.90
24682;DHT22;12802;53.390;-2.328;2023-06-22T06:13:33;16.70;99.90
24682;DHT22;12802;53.390;-2.328;2023-06-22T06:15:59;16.70;99.90
24682;DHT22;12802;53.390;-2.328;2023-06-22T06:18:26;16.70;99.90
24682;DHT22;12802;53.390;-2.328;2023-06-22T06:20:52;16.70;99.90
24682;DHT22;12802;53.390;-2.328;2023-06-22T06:23:18;16.80;99.90
24682;DHT22;12802;53.390;-2.328;2023-06-22T06:25:44;16.80;99.90
24682;DHT22;12802;53.390;-2.328;2023-06-22T06:30:36;16.80;99.90
24682;DHT22;12802;53.390;-2.328;2023-06-22T06:33:03;16.80;99.90
24682;DHT22;12802;53.390;-2.328;2023-06-22T06:35:34;16.80;99.90
24682;DHT22;12802;53.390;-2.328;2023-06-22T06:38:00;16.80;99.90
24682;DHT22;12802;53.390;-2.328;2023-06-22T06:40:26;16.80;99.90
24682;DHT22;12802;53.390;-2.328;2023-06-22T06:42:51;16.90;99.90
24682;DHT22;12802;53.390;-2.328;2023-06-22T06:45:19;16.90;99.90
24682;DHT22;12802;53.390;-2.328;2023-06-22T06:47:46;16.90;99.90
24682;DHT22;12802;53.390;-2.328;2023-06-22T06:50:12;16.90;99.90
24682;DHT22;12802;53.390;-2.328;2023-06-22T06:52:38;17.00;99.90
24682;DHT22;12802;53.390;-2.328;2023-06-22T06:55:04;17.10;99.90
24682;DHT22;12802;53.390;-2.328;2023-06-22T06:57:35;17.10;99.90
24682;DHT22;12802;53.390;-2.328;2023-06-22T07:00:03;17.20;99.90
24682;DHT22;12802;53.390;-2.328;2023-06-22T07:02:34;17.30;99.90
24682;DHT22;12802;53.390;-2.328;2023-06-22T07:05:00;17.40;99.90
24682;DHT22;12802;53.390;-2.328;2023-06-22T07:07:26;17.40;99.90
24682;DHT22;12802;53.390;-2.328;2023-06-22T07:09:51;17.40;99.90
24682;DHT22;12802;53.390;-2.328;2023-06-22T07:12:17;17.50;99.90
24682;DHT22;12802;53.390;-2.328;2023-06-22T07:14:43;17.50;99.90
24682;DHT22;12802;53.390;-2.328;2023-06-22T07:17:08;17.50;99.90
24682;DHT22;12802;53.390;-2.328;2023-06-22T07:19:34;17.50;99.90
24682;DHT22;12802;53.390;-2.328;2023-06-22T07:22:00;17.60;99.90
24682;DHT22;12802;53.390;-2.328;2023-06-22T07:24:26;17.60;99.90
24682;DHT22;12802;53.390;-2.328;2023-06-22T07:26:52;17.60;99.90
24682;DHT22;12802;53.390;-2.328;2023-06-22T07:29:19;17.60;99.90
24682;DHT22;12802;53.390;-2.328;2023-06-22T07:31:49;17.70;99.90
24682;DHT22;12802;53.390;-2.328;2023-06-22T07:34:17;17.70;99.90
24682;DHT22;12802;53.390;-2.328;2023-06-22T07:36:43;17.80;99.90
24682;DHT22;12802;53.390;-2.328;2023-06-22T07:39:09;17.80;99.90
24682;DHT22;12802;53.390;-2.328;2023-06-22T07:41:35;17.80;99.90
24682;DHT22;12802;53.390;-2.328;2023-06-22T07:44:02;17.80;99.90
24682;DHT22;12802;53.390;-2.328;2023-06-22T07:46:29;17.80;99.90
24682;DHT22;12802;53.390;-2.328;2023-06-22T07:48:56;17.90;99.90
24682;DHT22;12802;53.390;-2.328;2023-06-22T07:51:22;17.90;99.90
24682;DHT22;12802;53.390;-2.328;2023-06-22T07:53:48;17.90;99.90
24682;DHT22;12802;53.390;-2.328;2023-06-22T07:56:14;18.00;99.90
24682;DHT22;12802;53.390;-2.328;2023-06-22T07:58:45;18.00;99.90
24682;DHT22;12802;53.390;-2.328;2023-06-22T08:01:11;18.10;99.90
24682;DHT22;12802;53.390;-2.328;2023-06-22T08:03:37;18.10;99.90
24682;DHT22;12802;53.390;-2.328;2023-06-22T08:06:03;18.10;99.90
24682;DHT22;12802;53.390;-2.328;2023-06-22T08:08:29;18.20;99.90
24682;DHT22;12802;53.390;-2.328;2023-06-22T08:10:55;18.30;99.90
24682;DHT22;12802;53.390;-2.328;2023-06-22T08:13:20;18.40;99.90
24682;DHT22;12802;53.390;-2.328;2023-06-22T08:15:46;18.40;99.90
24682;DHT22;12802;53.390;-2.328;2023-06-22T08:18:12;18.40;99.90
24682;DHT22;12802;53.390;-2.328;2023-06-22T08:20:37;18.50;99.90
24682;DHT22;12802;53.390;-2.328;2023-06-22T08:23:03;18.60;99.90
24682;DHT22;12802;53.390;-2.328;2023-06-22T08:25:33;18.70;99.90
24682;DHT22;12802;53.390;-2.328;2023-06-22T08:28:00;18.70;99.90
24682;DHT22;12802;53.390;-2.328;2023-06-22T08:30:25;18.80;99.90
24682;DHT22;12802;53.390;-2.328;2023-06-22T08:32:51;18.80;99.90
24682;DHT22;12802;53.390;-2.328;2023-06-22T08:35:17;18.80;99.90
24682;DHT22;12802;53.390;-2.328;2023-06-22T08:37:43;18.90;99.90
24682;DHT22;12802;53.390;-2.328;2023-06-22T08:40:09;18.80;99.90
24682;DHT22;12802;53.390;-2.328;2023-06-22T08:42:36;18.90;99.90
24682;DHT22;12802;53.390;-2.328;2023-06-22T08:45:02;18.80;99.90
24682;DHT22;12802;53.390;-2.328;2023-06-22T08:47:28;19.00;99.90
24682;DHT22;12802;53.390;-2.328;2023-06-22T08:49:54;19.00;99.90
24682;DHT22;12802;53.390;-2.328;2023-06-22T08:52:20;19.10;99.90
24682;DHT22;12802;53.390;-2.328;2023-06-22T08:54:49;19.20;99.90
24682;DHT22;12802;53.390;-2.328;2023-06-22T08:57:15;19.10;99.90
24682;DHT22;12802;53.390;-2.328;2023-06-22T08:59:42;19.20;99.90
24682;DHT22;12802;53.390;-2.328;2023-06-22T09:02:07;19.20;99.90
24682;DHT22;12802;53.390;-2.328;2023-06-22T09:04:33;19.30;99.90
24682;DHT22;12802;53.390;-2.328;2023-06-22T09:07:02;19.40;99.90
24682;DHT22;12802;53.390;-2.328;2023-06-22T09:09:28;19.50;99.90
24682;DHT22;12802;53.390;-2.328;2023-06-22T09:11:53;19.50;99.90
24682;DHT22;12802;53.390;-2.328;2023-06-22T09:14:19;19.60;99.90
24682;DHT22;12802;53.390;-2.328;2023-06-22T09:16:45;19.60;99.90
24682;DHT22;12802;53.390;-2.328;2023-06-22T09:19:11;19.80;99.90
24682;DHT22;12802;53.390;-2.328;2023-06-22T09:21:37;19.80;99.90
24682;DHT22;12802;53.390;-2.328;2023-06-22T09:24:03;19.80;99.90
24682;DHT22;12802;53.390;-2.328;2023-06-22T09:26:29;19.80;99.90
24682;DHT22;12802;53.390;-2.328;2023-06-22T09:28:54;19.90;99.90
24682;DHT22;12802;53.390;-2.328;2023-06-22T09:31:20;20.00;99.90
24682;DHT22;12802;53.390;-2.328;2023-06-22T09:33:52;20.10;99.90
24682;DHT22;12802;53.390;-2.328;2023-06-22T09:36:18;20.20;99.90
24682;DHT22;12802;53.390;-2.328;2023-06-22T09:38:44;20.30;99.90
24682;DHT22;12802;53.390;-2.328;2023-06-22T09:41:09;20.40;99.90
24682;DHT22;12802;53.390;-2.328;2023-06-22T09:43:35;20.70;99.90
24682;DHT22;12802;53.390;-2.328;2023-06-22T09:46:02;20.70;99.90
24682;DHT22;12802;53.390;-2.328;2023-06-22T09:48:28;20.60;99.90
24682;DHT22;12802;53.390;-2.328;2023-06-22T09:50:55;20.70;99.90
24682;DHT22;12802;53.390;-2.328;2023-06-22T09:53:20;20.90;99.90
24682;DHT22;12802;53.390;-2.328;2023-06-22T09:55:46;21.00;99.90
24682;DHT22;12802;53.390;-2.328;2023-06-22T09:58:12;21.10;99.90
24682;DHT22;12802;53.390;-2.328;2023-06-22T10:00:38;21.20;99.90
24682;DHT22;12802;53.390;-2.328;2023-06-22T10:03:04;21.30;99.90
24682;DHT22;12802;53.390;-2.328;2023-06-22T10:05:29;21.30;99.90
24682;DHT22;12802;53.390;-2.328;2023-06-22T10:07:55;21.10;99.90
24682;DHT22;12802;53.390;-2.328;2023-06-22T10:10:21;21.20;99.90
24682;DHT22;12802;53.390;-2.328;2023-06-22T10:12:54;21.60;99.90
24682;DHT22;12802;53.390;-2.328;2023-06-22T10:15:20;21.30;99.90
24682;DHT22;12802;53.390;-2.328;2023-06-22T10:17:47;21.40;99.90
24682;DHT22;12802;53.390;-2.328;2023-06-22T10:20:13;21.60;99.90
24682;DHT22;12802;53.390;-2.328;2023-06-22T10:22:40;21.70;99.90
24682;DHT22;12802;53.390;-2.328;2023-06-22T10:25:07;21.60;99.90
24682;DHT22;12802;53.390;-2.328;2023-06-22T10:27:33;21.70;99.90
24682;DHT22;12802;53.390;-2.328;2023-06-22T10:42:09;22.00;99.90
24682;DHT22;12802;53.390;-2.328;2023-06-22T10:59:12;22.40;99.90
24682;DHT22;12802;53.390;-2.328;2023-06-22T11:01:38;22.40;99.90
24682;DHT22;12802;53.390;-2.328;2023-06-22T11:04:03;22.20;99.90
24682;DHT22;12802;53.390;-2.328;2023-06-22T11:06:29;22.00;99.90
24682;DHT22;12802;53.390;-2.328;2023-06-22T11:08:55;22.00;99.90
24682;DHT22;12802;53.390;-2.328;2023-06-22T11:11:21;22.20;99.90
24682;DHT22;12802;53.390;-2.328;2023-06-22T11:13:47;22.30;99.90
24682;DHT22;12802;53.390;-2.328;2023-06-22T11:16:12;22.50;99.90
24682;DHT22;12802;53.390;-2.328;2023-06-22T11:18:38;22.70;99.90
24682;DHT22;12802;53.390;-2.328;2023-06-22T11:21:04;22.70;99.90
24682;DHT22;12802;53.390;-2.328;2023-06-22T11:23:30;23.00;99.90
24682;DHT22;12802;53.390;-2.328;2023-06-22T11:25:55;23.60;99.90
24682;DHT22;12802;53.390;-2.328;2023-06-22T11:28:21;23.80;99.90
24682;DHT22;12802;53.390;-2.328;2023-06-22T11:30:47;23.70;99.90
24682;DHT22;12802;53.390;-2.328;2023-06-22T11:33:12;23.50;99.90
24682;DHT22;12802;53.390;-2.328;2023-06-22T11:35:38;23.70;99.90
24682;DHT22;12802;53.390;-2.328;2023-06-22T11:38:04;23.90;99.90
24682;DHT22;12802;53.390;-2.328;2023-06-22T11:40:30;23.90;99.90
24682;DHT22;12802;53.390;-2.328;2023-06-22T11:42:56;24.00;99.90
24682;DHT22;12802;53.390;-2.328;2023-06-22T11:45:22;24.00;99.90
24682;DHT22;12802;53.390;-2.328;2023-06-22T11:47:48;24.30;99.90
24682;DHT22;12802;53.390;-2.328;2023-06-22T11:50:14;24.20;99.90
24682;DHT22;12802;53.390;-2.328;2023-06-22T11:52:40;24.00;99.90
24682;DHT22;12802;53.390;-2.328;2023-06-22T11:55:06;23.90;99.90
24682;DHT22;12802;53.390;-2.328;2023-06-22T11:57:36;23.90;99.90
24682;DHT22;12802;53.390;-2.328;2023-06-22T12:00:04;23.90;99.90
24682;DHT22;12802;53.390;-2.328;2023-06-22T12:02:44;24.20;99.90
24682;DHT22;12802;53.390;-2.328;2023-06-22T12:05:11;24.30;99.90
24682;DHT22;12802;53.390;-2.328;2023-06-22T12:07:36;24.30;99.90
24682;DHT22;12802;53.390;-2.328;2023-06-22T12:10:03;24.60;99.90
24682;DHT22;12802;53.390;-2.328;2023-06-22T12:12:29;24.50;99.90
24682;DHT22;12802;53.390;-2.328;2023-06-22T12:14:55;24.70;99.90
24682;DHT22;12802;53.390;-2.328;2023-06-22T12:17:21;24.70;99.90
24682;DHT22;12802;53.390;-2.328;2023-06-22T12:19:46;24.80;99.90
24682;DHT22;12802;53.390;-2.328;2023-06-22T12:22:12;24.80;99.90
24682;DHT22;12802;53.390;-2.328;2023-06-22T12:24:38;24.90;99.90
24682;DHT22;12802;53.390;-2.328;2023-06-22T12:27:04;24.80;99.90
24682;DHT22;12802;53.390;-2.328;2023-06-22T12:29:30;24.60;99.90
24682;DHT22;12802;53.390;-2.328;2023-06-22T12:31:55;24.50;99.90
24682;DHT22;12802;53.390;-2.328;2023-06-22T12:34:21;24.90;99.90
24682;DHT22;12802;53.390;-2.328;2023-06-22T12:36:47;25.00;99.90
24682;DHT22;12802;53.390;-2.328;2023-06-22T12:39:14;25.10;99.90
24682;DHT22;12802;53.390;-2.328;2023-06-22T12:41:40;25.30;99.90
24682;DHT22;12802;53.390;-2.328;2023-06-22T12:44:06;25.40;99.90
24682;DHT22;12802;53.390;-2.328;2023-06-22T12:46:31;25.60;99.90
24682;DHT22;12802;53.390;-2.328;2023-06-22T12:49:03;25.90;99.90
24682;DHT22;12802;53.390;-2.328;2023-06-22T12:51:30;25.80;99.90
24682;DHT22;12802;53.390;-2.328;2023-06-22T12:53:56;25.70;99.90
24682;DHT22;12802;53.390;-2.328;2023-06-22T12:56:22;25.20;99.90
24682;DHT22;12802;53.390;-2.328;2023-06-22T12:58:48;25.00;99.90
24682;DHT22;12802;53.390;-2.328;2023-06-22T13:01:13;25.20;99.90
24682;DHT22;12802;53.390;-2.328;2023-06-22T13:03:41;25.60;99.90
24682;DHT22;12802;53.390;-2.328;2023-06-22T13:06:07;25.70;99.90
24682;DHT22;12802;53.390;-2.328;2023-06-22T13:08:33;25.40;99.90
24682;DHT22;12802;53.390;-2.328;2023-06-22T13:10:58;25.10;99.90
24682;DHT22;12802;53.390;-2.328;2023-06-22T13:13:25;24.90;99.90
24682;DHT22;12802;53.390;-2.328;2023-06-22T13:18:19;24.50;99.90
24682;DHT22;12802;53.390;-2.328;2023-06-22T13:20:45;24.30;99.90
24682;DHT22;12802;53.390;-2.328;2023-06-22T14:33:58;29.00;99.90
24682;DHT22;12802;53.390;-2.328;2023-06-22T14:38:50;29.70;99.90
24682;DHT22;12802;53.390;-2.328;2023-06-22T14:41:16;29.20;99.90
24682;DHT22;12802;53.390;-2.328;2023-06-22T14:43:47;29.00;99.90
24682;DHT22;12802;53.390;-2.328;2023-06-22T14:51:08;28.70;99.90
24682;DHT22;12802;53.390;-2.328;2023-06-22T14:53:35;28.80;99.90
24682;DHT22;12802;53.390;-2.328;2023-06-22T14:56:01;29.00;99.90
24682;DHT22;12802;53.390;-2.328;2023-06-22T15:01:02;28.20;99.90
24682;DHT22;12802;53.390;-2.328;2023-06-22T15:25:29;29.20;99.90
24682;DHT22;12802;53.390;-2.328;2023-06-22T15:59:42;27.30;99.90
24682;DHT22;12802;53.390;-2.328;2023-06-22T16:02:08;27.00;99.90
24682;DHT22;12802;53.390;-2.328;2023-06-22T16:07:01;27.10;99.90
24682;DHT22;12802;53.390;-2.328;2023-06-22T16:09:27;26.80;99.90
24682;DHT22;12802;53.390;-2.328;2023-06-22T16:11:54;26.80;99.90
24682;DHT22;12802;53.390;-2.328;2023-06-22T16:14:20;26.60;99.90
24682;DHT22;12802;53.390;-2.328;2023-06-22T16:16:46;26.30;99.90
24682;DHT22;12802;53.390;-2.328;2023-06-22T16:19:12;26.40;99.90
24682;DHT22;12802;53.390;-2.328;2023-06-22T16:21:38;26.30;99.90
24682;DHT22;12802;53.390;-2.328;2023-06-22T16:24:04;26.30;99.90
24682;DHT22;12802;53.390;-2.328;2023-06-22T16:26:37;26.10;99.90
24682;DHT22;12802;53.390;-2.328;2023-06-22T16:29:03;26.00;99.90
24682;DHT22;12802;53.390;-2.328;2023-06-22T16:31:28;26.00;99.90
24682;DHT22;12802;53.390;-2.328;2023-06-22T16:33:54;26.00;99.90
24682;DHT22;12802;53.390;-2.328;2023-06-22T16:36:20;25.90;99.90
24682;DHT22;12802;53.390;-2.328;2023-06-22T16:38:45;25.90;99.90
24682;DHT22;12802;53.390;-2.328;2023-06-22T16:41:11;25.70;99.90
24682;DHT22;12802;53.390;-2.328;2023-06-22T16:43:38;25.60;99.90
24682;DHT22;12802;53.390;-2.328;2023-06-22T16:46:06;25.50;99.90
24682;DHT22;12802;53.390;-2.328;2023-06-22T16:48:32;25.30;99.90
24682;DHT22;12802;53.390;-2.328;2023-06-22T16:50:58;25.30;99.90
24682;DHT22;12802;53.390;-2.328;2023-06-22T16:53:24;25.20;99.90
24682;DHT22;12802;53.390;-2.328;2023-06-22T16:55:51;25.20;99.90
24682;DHT22;12802;53.390;-2.328;2023-06-22T16:58:19;25.20;99.90
24682;DHT22;12802;53.390;-2.328;2023-06-22T17:00:49;25.20;99.90
24682;DHT22;12802;53.390;-2.328;2023-06-22T17:03:26;25.30;99.90
24682;DHT22;12802;53.390;-2.328;2023-06-22T17:05:57;25.30;99.90
24682;DHT22;12802;53.390;-2.328;2023-06-22T17:08:25;25.10;99.90
24682;DHT22;12802;53.390;-2.328;2023-06-22T17:10:54;25.10;99.90
24682;DHT22;12802;53.390;-2.328;2023-06-22T17:13:21;24.90;99.90
24682;DHT22;12802;53.390;-2.328;2023-06-22T17:15:48;25.00;99.90
24682;DHT22;12802;53.390;-2.328;2023-06-22T17:18:15;25.10;99.90
24682;DHT22;12802;53.390;-2.328;2023-06-22T17:20:41;25.10;99.90
24682;DHT22;12802;53.390;-2.328;2023-06-22T17:23:07;25.30;99.90
24682;DHT22;12802;53.390;-2.328;2023-06-22T17:25:33;25.20;99.90
24682;DHT22;12802;53.390;-2.328;2023-06-22T17:28:00;25.10;99.90
24682;DHT22;12802;53.390;-2.328;2023-06-22T17:30:27;25.10;99.90
24682;DHT22;12802;53.390;-2.328;2023-06-22T17:32:53;25.00;99.90
24682;DHT22;12802;53.390;-2.328;2023-06-22T17:35:19;24.90;99.90
24682;DHT22;12802;53.390;-2.328;2023-06-22T17:37:53;24.90;99.90
24682;DHT22;12802;53.390;-2.328;2023-06-22T17:40:20;24.80;99.90
24682;DHT22;12802;53.390;-2.328;2023-06-22T17:42:46;24.70;99.90
24682;DHT22;12802;53.390;-2.328;2023-06-22T17:45:20;24.80;99.90
24682;DHT22;12802;53.390;-2.328;2023-06-22T17:47:51;24.80;99.90
24682;DHT22;12802;53.390;-2.328;2023-06-22T17:50:17;24.80;99.90
24682;DHT22;12802;53.390;-2.328;2023-06-22T17:52:55;24.60;99.90
24682;DHT22;12802;53.390;-2.328;2023-06-22T17:55:22;24.60;99.90
24682;DHT22;12802;53.390;-2.328;2023-06-22T17:57:58;24.40;99.90
24682;DHT22;12802;53.390;-2.328;2023-06-22T18:05:33;24.60;99.90
24682;DHT22;12802;53.390;-2.328;2023-06-22T19:52:38;21.50;99.90
24682;DHT22;12802;53.390;-2.328;2023-06-22T21:33:57;19.40;99.90
24682;DHT22;12802;53.390;-2.328;2023-06-22T21:41:15;19.20;99.90
24682;DHT22;12802;53.390;-2.328;2023-06-22T21:43:41;19.20;99.90
24682;DHT22;12802;53.390;-2.328;2023-06-22T21:46:06;19.10;99.90
24682;DHT22;12802;53.390;-2.328;2023-06-22T21:48:32;19.10;99.90
24682;DHT22;12802;53.390;-2.328;2023-06-22T21:50:58;19.00;99.90
24682;DHT22;12802;53.390;-2.328;2023-06-22T21:53:24;19.00;99.90
24682;DHT22;12802;53.390;-2.328;2023-06-22T21:55:52;19.00;99.90
24682;DHT22;12802;53.390;-2.328;2023-06-22T21:58:19;19.00;99.90
24682;DHT22;12802;53.390;-2.328;2023-06-22T22:00:51;19.00;99.90
24682;DHT22;12802;53.390;-2.328;2023-06-22T22:03:17;19.00;99.90
24682;DHT22;12802;53.390;-2.328;2023-06-22T22:05:43;19.00;99.90
24682;DHT22;12802;53.390;-2.328;2023-06-22T22:08:09;19.00;99.90
24682;DHT22;12802;53.390;-2.328;2023-06-22T22:10:35;18.90;99.90
24682;DHT22;12802;53.390;-2.328;2023-06-22T22:13:02;18.90;99.90
24682;DHT22;12802;53.390;-2.328;2023-06-22T22:15:28;18.80;99.90
24682;DHT22;12802;53.390;-2.328;2023-06-22T22:17:53;18.70;99.90